createdAt,value
2017-08-18T00:00:18.589Z,987.93
2017-08-18T00:01:15.878Z,987.86
2017-08-18T00:02:13.181Z,987.82
2017-08-18T00:03:10.456Z,987.85
2017-08-18T00:04:07.753Z,987.84
2017-08-18T00:05:05.042Z,987.78
2017-08-18T00:06:02.333Z,987.77
2017-08-18T00:06:59.590Z,987.78
2017-08-18T00:07:56.996Z,987.78
2017-08-18T00:08:54.274Z,987.78
2017-08-18T00:09:51.557Z,987.83
2017-08-18T00:10:48.832Z,987.83
2017-08-18T00:11:46.122Z,987.80
2017-08-18T00:12:43.442Z,987.82
2017-08-18T00:13:40.746Z,987.83
2017-08-18T00:14:38.017Z,987.82
2017-08-18T00:15:35.301Z,987.78
2017-08-18T00:16:32.593Z,987.82
2017-08-18T00:17:29.927Z,987.82
2017-08-18T00:18:27.211Z,987.80
2017-08-18T00:19:24.523Z,987.83
2017-08-18T00:20:21.832Z,987.77
2017-08-18T00:21:19.195Z,987.76
2017-08-18T00:22:16.467Z,987.78
2017-08-18T00:23:13.765Z,987.67
2017-08-18T00:24:11.047Z,987.73
2017-08-18T00:25:08.334Z,987.63
2017-08-18T00:26:05.630Z,987.65
2017-08-18T00:27:02.925Z,987.66
2017-08-18T00:28:00.214Z,987.64
2017-08-18T00:28:57.506Z,987.65
2017-08-18T00:29:54.825Z,987.56
2017-08-18T00:30:52.122Z,987.62
2017-08-18T00:31:49.401Z,987.67
2017-08-18T00:32:46.706Z,987.62
2017-08-18T00:33:43.983Z,987.72
2017-08-18T00:34:41.265Z,987.57
2017-08-18T00:35:38.553Z,987.64
2017-08-18T00:36:35.938Z,987.58
2017-08-18T00:37:33.220Z,987.59
2017-08-18T00:38:30.546Z,987.46
2017-08-18T00:39:27.830Z,987.51
2017-08-18T00:40:25.124Z,987.48
2017-08-18T00:41:22.406Z,987.52
2017-08-18T00:42:19.702Z,987.49
2017-08-18T00:43:17.002Z,987.46
2017-08-18T00:44:14.293Z,987.48
2017-08-18T00:45:11.565Z,987.48
2017-08-18T00:46:08.862Z,987.50
2017-08-18T00:47:06.150Z,987.37
2017-08-18T00:48:03.454Z,987.45
2017-08-18T00:49:00.741Z,987.49
2017-08-18T00:49:58.047Z,987.41
2017-08-18T00:50:55.352Z,987.37
2017-08-18T00:51:52.652Z,987.48
2017-08-18T00:52:49.914Z,987.39
2017-08-18T00:53:47.221Z,987.40
2017-08-18T00:54:44.491Z,987.37
2017-08-18T00:55:41.773Z,987.35
2017-08-18T00:56:39.054Z,987.44
2017-08-18T00:57:36.337Z,987.39
2017-08-18T00:58:33.641Z,987.29
2017-08-18T00:59:31.001Z,987.32
2017-08-18T01:00:28.257Z,987.32
2017-08-18T01:01:25.546Z,987.32
2017-08-18T01:02:22.821Z,987.25
2017-08-18T01:03:20.109Z,987.33
2017-08-18T01:04:17.417Z,987.35
2017-08-18T01:05:14.705Z,987.35
2017-08-18T01:06:11.980Z,987.35
2017-08-18T01:07:09.265Z,987.28
2017-08-18T01:08:06.542Z,987.33
2017-08-18T01:09:03.859Z,987.29
2017-08-18T01:10:01.137Z,987.30
2017-08-18T01:10:58.430Z,987.33
2017-08-18T01:11:55.706Z,987.30
2017-08-18T01:12:52.982Z,987.34
2017-08-18T01:13:50.257Z,987.29
2017-08-18T01:14:47.575Z,987.23
2017-08-18T01:15:44.855Z,987.28
2017-08-18T01:16:42.152Z,987.27
2017-08-18T01:17:39.431Z,987.24
2017-08-18T01:18:36.729Z,987.28
2017-08-18T01:19:34.042Z,987.23
2017-08-18T01:20:31.340Z,987.22
2017-08-18T01:21:28.634Z,987.22
2017-08-18T01:22:25.930Z,987.26
2017-08-18T01:23:23.217Z,987.24
2017-08-18T01:24:20.529Z,987.26
2017-08-18T01:25:17.802Z,987.23
2017-08-18T01:26:15.078Z,987.17
2017-08-18T01:27:12.362Z,987.11
2017-08-18T01:28:09.668Z,987.18
2017-08-18T01:29:06.945Z,987.12
2017-08-18T01:30:04.267Z,987.15
2017-08-18T01:31:01.554Z,987.02
2017-08-18T01:31:58.866Z,987.09
2017-08-18T01:32:56.163Z,987.03
2017-08-18T01:33:53.582Z,987.03
2017-08-18T01:34:50.918Z,987.07
2017-08-18T01:35:48.222Z,987.01
2017-08-18T01:36:45.502Z,987.04
2017-08-18T01:37:42.805Z,987.06
2017-08-18T01:38:40.078Z,986.99
2017-08-18T01:39:37.385Z,987.06
2017-08-18T01:40:34.662Z,986.99
2017-08-18T01:41:31.934Z,986.92
2017-08-18T01:42:29.215Z,987.01
2017-08-18T01:43:26.517Z,986.96
2017-08-18T01:44:23.806Z,986.97
2017-08-18T01:45:21.110Z,986.94
2017-08-18T01:46:18.406Z,986.92
2017-08-18T01:47:15.695Z,986.93
2017-08-18T01:48:12.981Z,986.91
2017-08-18T01:49:10.284Z,986.96
2017-08-18T01:50:07.585Z,986.93
2017-08-18T01:51:04.884Z,986.98
2017-08-18T01:52:02.170Z,986.93
2017-08-18T01:52:59.572Z,986.86
2017-08-18T01:53:56.874Z,986.80
2017-08-18T01:54:54.223Z,986.91
2017-08-18T01:55:51.490Z,986.88
2017-08-18T01:56:48.791Z,986.85
2017-08-18T01:57:46.088Z,986.86
2017-08-18T01:58:43.365Z,986.92
2017-08-18T01:59:40.658Z,986.88
2017-08-18T02:00:37.977Z,986.91
2017-08-18T02:01:35.245Z,986.87
2017-08-18T02:02:32.522Z,986.82
2017-08-18T02:03:29.818Z,986.91
2017-08-18T02:04:27.130Z,986.87
2017-08-18T02:05:24.445Z,986.90
2017-08-18T02:06:21.733Z,986.81
2017-08-18T02:07:19.028Z,986.97
2017-08-18T02:08:16.337Z,986.93
2017-08-18T02:09:13.626Z,986.91
2017-08-18T02:10:10.902Z,986.82
2017-08-18T02:11:08.202Z,986.90
2017-08-18T02:12:05.598Z,986.85
2017-08-18T02:13:02.898Z,986.90
2017-08-18T02:14:00.181Z,986.79
2017-08-18T02:14:57.477Z,986.82
2017-08-18T02:15:54.800Z,986.88
2017-08-18T02:16:52.090Z,986.91
2017-08-18T02:17:49.403Z,986.88
2017-08-18T02:18:46.693Z,986.94
2017-08-18T02:19:43.973Z,986.89
2017-08-18T02:20:41.269Z,986.85
2017-08-18T02:21:38.557Z,986.85
2017-08-18T02:22:35.842Z,986.87
2017-08-18T02:23:33.137Z,986.87
2017-08-18T02:24:30.397Z,986.85
2017-08-18T02:25:27.734Z,986.82
2017-08-18T02:26:25.053Z,986.82
2017-08-18T02:27:22.409Z,986.80
2017-08-18T02:28:19.688Z,986.90
2017-08-18T02:29:16.974Z,986.88
2017-08-18T02:30:14.237Z,986.95
2017-08-18T02:31:11.629Z,986.85
2017-08-18T02:32:08.914Z,986.84
2017-08-18T02:33:06.221Z,986.77
2017-08-18T02:34:03.509Z,986.67
2017-08-18T02:35:00.798Z,986.79
2017-08-18T02:35:58.097Z,986.69
2017-08-18T02:36:55.389Z,986.77
2017-08-18T02:37:52.679Z,986.78
2017-08-18T02:38:49.961Z,986.73
2017-08-18T02:39:47.233Z,986.73
2017-08-18T02:40:44.634Z,986.62
2017-08-18T02:41:41.951Z,986.79
2017-08-18T02:42:39.249Z,986.74
2017-08-18T02:43:36.535Z,986.71
2017-08-18T02:44:33.817Z,986.70
2017-08-18T02:45:31.089Z,986.73
2017-08-18T02:46:28.406Z,986.77
2017-08-18T02:47:25.678Z,986.80
2017-08-18T02:48:23.001Z,986.75
2017-08-18T02:49:20.307Z,986.72
2017-08-18T02:50:17.613Z,986.74
2017-08-18T02:51:14.937Z,986.75
2017-08-18T02:52:12.234Z,986.73
2017-08-18T02:53:09.522Z,986.71
2017-08-18T02:54:06.838Z,986.78
2017-08-18T02:55:04.129Z,986.76
2017-08-18T02:56:01.434Z,986.81
2017-08-18T02:56:58.797Z,986.79
2017-08-18T02:57:56.137Z,986.70
2017-08-18T02:58:53.422Z,986.74
2017-08-18T02:59:50.752Z,986.80
2017-08-18T03:00:48.060Z,986.69
2017-08-18T03:01:45.408Z,986.68
2017-08-18T03:02:42.705Z,986.66
2017-08-18T03:03:40.029Z,986.56
2017-08-18T03:04:37.306Z,986.55
2017-08-18T03:05:34.601Z,986.63
2017-08-18T03:06:31.879Z,986.62
2017-08-18T03:07:29.226Z,986.62
2017-08-18T03:08:26.542Z,986.62
2017-08-18T03:09:23.877Z,986.60
2017-08-18T03:10:21.175Z,986.64
2017-08-18T03:11:18.461Z,986.60
2017-08-18T03:12:16.520Z,986.70
2017-08-18T03:13:14.218Z,986.67
2017-08-18T03:14:11.555Z,986.63
2017-08-18T03:15:08.954Z,986.70
2017-08-18T03:16:06.290Z,986.67
2017-08-18T03:17:03.627Z,986.67
2017-08-18T03:18:00.925Z,986.67
2017-08-18T03:18:58.223Z,986.72
2017-08-18T03:19:55.493Z,986.71
2017-08-18T03:20:52.806Z,986.65
2017-08-18T03:21:50.102Z,986.58
2017-08-18T03:22:47.406Z,986.55
2017-08-18T03:23:44.687Z,986.60
2017-08-18T03:24:41.998Z,986.49
2017-08-18T03:25:39.273Z,986.54
2017-08-18T03:26:36.579Z,986.57
2017-08-18T03:27:33.879Z,986.59
2017-08-18T03:28:31.173Z,986.50
2017-08-18T03:29:29.255Z,986.62
2017-08-18T03:30:26.595Z,986.52
2017-08-18T03:31:23.861Z,986.46
2017-08-18T03:32:21.186Z,986.55
2017-08-18T03:33:18.474Z,986.37
2017-08-18T03:34:15.781Z,986.43
2017-08-18T03:35:13.078Z,986.36
2017-08-18T03:36:10.377Z,986.39
2017-08-18T03:37:07.667Z,986.32
2017-08-18T03:38:05.015Z,986.28
2017-08-18T03:39:02.287Z,986.28
2017-08-18T03:39:59.650Z,986.34
2017-08-18T03:40:56.946Z,986.33
2017-08-18T03:41:54.245Z,986.32
2017-08-18T03:42:51.553Z,986.33
2017-08-18T03:43:48.850Z,986.30
2017-08-18T03:44:46.144Z,986.30
2017-08-18T03:45:43.434Z,986.33
2017-08-18T03:46:40.703Z,986.36
2017-08-18T03:47:38.119Z,986.33
2017-08-18T03:48:35.427Z,986.48
2017-08-18T03:49:32.755Z,986.41
2017-08-18T03:50:30.033Z,986.45
2017-08-18T03:51:27.334Z,986.40
2017-08-18T03:52:24.620Z,986.30
2017-08-18T03:53:21.985Z,986.32
2017-08-18T03:54:19.313Z,986.37
2017-08-18T03:55:16.602Z,986.38
2017-08-18T03:56:13.881Z,986.40
2017-08-18T03:57:11.173Z,986.47
2017-08-18T03:58:08.473Z,986.46
2017-08-18T03:59:05.778Z,986.39
2017-08-18T04:00:03.035Z,986.39
2017-08-18T04:01:00.317Z,986.39
2017-08-18T04:01:57.585Z,986.40
2017-08-18T04:02:54.872Z,986.34
2017-08-18T04:03:52.174Z,986.37
2017-08-18T04:04:49.501Z,986.31
2017-08-18T04:05:46.786Z,986.31
2017-08-18T04:06:44.081Z,986.32
2017-08-18T04:07:41.357Z,986.31
2017-08-18T04:08:38.679Z,986.34
2017-08-18T04:09:35.970Z,986.30
2017-08-18T04:10:33.278Z,986.31
2017-08-18T04:11:30.562Z,986.24
2017-08-18T04:12:27.861Z,986.26
2017-08-18T04:13:25.147Z,986.27
2017-08-18T04:14:22.477Z,986.20
2017-08-18T04:15:19.757Z,986.23
2017-08-18T04:16:17.056Z,986.24
2017-08-18T04:17:14.321Z,986.20
2017-08-18T04:18:11.626Z,986.20
2017-08-18T04:19:08.905Z,986.26
2017-08-18T04:20:06.221Z,986.17
2017-08-18T04:21:03.499Z,986.25
2017-08-18T04:22:00.815Z,986.21
2017-08-18T04:22:58.122Z,986.19
2017-08-18T04:23:55.424Z,986.24
2017-08-18T04:24:52.698Z,986.21
2017-08-18T04:25:50.120Z,986.20
2017-08-18T04:26:47.445Z,986.20
2017-08-18T04:27:44.734Z,986.15
2017-08-18T04:28:42.043Z,986.24
2017-08-18T04:29:39.341Z,986.26
2017-08-18T04:30:36.623Z,986.27
2017-08-18T04:31:33.915Z,986.23
2017-08-18T04:32:31.189Z,986.24
2017-08-18T04:33:28.471Z,986.26
2017-08-18T04:34:25.791Z,986.26
2017-08-18T04:35:23.076Z,986.27
2017-08-18T04:36:20.354Z,986.32
2017-08-18T04:37:17.650Z,986.31
2017-08-18T04:38:14.925Z,986.27
2017-08-18T04:39:12.244Z,986.29
2017-08-18T04:40:09.551Z,986.30
2017-08-18T04:41:06.834Z,986.19
2017-08-18T04:42:04.135Z,986.19
2017-08-18T04:43:01.445Z,986.26
2017-08-18T04:43:58.766Z,986.22
2017-08-18T04:44:56.085Z,986.28
2017-08-18T04:45:53.377Z,986.29
2017-08-18T04:46:50.674Z,986.29
2017-08-18T04:47:47.961Z,986.32
2017-08-18T04:48:47.292Z,986.22
2017-08-18T04:49:44.580Z,986.15
2017-08-18T04:50:41.866Z,986.17
2017-08-18T04:51:39.142Z,986.07
2017-08-18T04:52:36.437Z,986.17
2017-08-18T04:53:33.781Z,986.15
2017-08-18T04:54:31.080Z,986.14
2017-08-18T04:55:28.365Z,986.08
2017-08-18T04:56:25.656Z,986.18
2017-08-18T04:57:22.945Z,986.22
2017-08-18T04:58:20.229Z,986.11
2017-08-18T04:59:17.497Z,986.19
2017-08-18T05:00:14.825Z,986.22
2017-08-18T05:01:12.105Z,986.22
2017-08-18T05:02:09.723Z,986.19
2017-08-18T05:03:07.061Z,986.18
2017-08-18T05:04:04.362Z,986.20
2017-08-18T05:05:01.658Z,986.23
2017-08-18T05:05:58.957Z,986.23
2017-08-18T05:06:56.247Z,986.19
2017-08-18T05:07:53.546Z,986.18
2017-08-18T05:08:50.858Z,986.15
2017-08-18T05:09:48.170Z,986.22
2017-08-18T05:10:45.425Z,986.16
2017-08-18T05:11:42.709Z,986.08
2017-08-18T05:12:39.970Z,986.22
2017-08-18T05:13:37.273Z,986.24
2017-08-18T05:14:34.550Z,986.20
2017-08-18T05:15:31.882Z,986.29
2017-08-18T05:16:29.149Z,986.29
2017-08-18T05:17:26.421Z,986.22
2017-08-18T05:18:23.702Z,986.18
2017-08-18T05:19:20.994Z,986.28
2017-08-18T05:20:20.362Z,986.37
2017-08-18T05:21:17.658Z,986.38
2017-08-18T05:22:14.929Z,986.35
2017-08-18T05:23:12.212Z,986.44
2017-08-18T05:24:09.521Z,986.43
2017-08-18T05:25:08.075Z,986.43
2017-08-18T05:26:05.352Z,986.44
2017-08-18T05:27:02.624Z,986.56
2017-08-18T05:27:59.893Z,986.48
2017-08-18T05:28:57.185Z,986.54
2017-08-18T05:29:54.451Z,986.49
2017-08-18T05:30:51.782Z,986.48
2017-08-18T05:31:49.871Z,986.49
2017-08-18T05:32:47.152Z,986.58
2017-08-18T05:33:44.429Z,986.52
2017-08-18T05:34:41.726Z,986.52
2017-08-18T05:35:39.026Z,986.52
2017-08-18T05:36:36.321Z,986.50
2017-08-18T05:37:33.585Z,986.47
2017-08-18T05:38:30.870Z,986.54
2017-08-18T05:39:28.155Z,986.46
2017-08-18T05:40:25.486Z,986.39
2017-08-18T05:41:22.795Z,986.38
2017-08-18T05:42:20.121Z,986.37
2017-08-18T05:43:17.392Z,986.37
2017-08-18T05:44:14.682Z,986.44
2017-08-18T05:45:11.947Z,986.44
2017-08-18T05:46:09.252Z,986.48
2017-08-18T05:47:06.530Z,986.46
2017-08-18T05:48:03.809Z,986.37
2017-08-18T05:49:01.098Z,986.44
2017-08-18T05:49:58.373Z,986.44
2017-08-18T05:50:55.659Z,986.38
2017-08-18T05:51:52.970Z,986.28
2017-08-18T05:52:50.233Z,986.30
2017-08-18T05:53:47.509Z,986.27
2017-08-18T05:54:44.779Z,986.28
2017-08-18T05:55:42.080Z,986.23
2017-08-18T05:56:39.371Z,986.19
2017-08-18T05:57:36.722Z,986.25
2017-08-18T05:58:34.006Z,986.29
2017-08-18T05:59:31.362Z,986.20
2017-08-18T06:00:28.700Z,986.31
2017-08-18T06:01:26.017Z,986.38
2017-08-18T06:02:23.288Z,986.33
2017-08-18T06:03:20.589Z,986.38
2017-08-18T06:04:17.873Z,986.39
2017-08-18T06:05:15.168Z,986.37
2017-08-18T06:06:12.484Z,986.38
2017-08-18T06:07:09.754Z,986.42
2017-08-18T06:08:07.033Z,986.33
2017-08-18T06:09:04.310Z,986.37
2017-08-18T06:10:01.582Z,986.30
2017-08-18T06:10:58.961Z,986.31
2017-08-18T06:11:56.241Z,986.24
2017-08-18T06:12:53.530Z,986.33
2017-08-18T06:13:50.815Z,986.34
2017-08-18T06:14:48.126Z,986.29
2017-08-18T06:15:45.442Z,986.31
2017-08-18T06:16:42.747Z,986.29
2017-08-18T06:17:40.018Z,986.29
2017-08-18T06:18:37.322Z,986.29
2017-08-18T06:19:34.586Z,986.24
2017-08-18T06:20:31.872Z,986.35
2017-08-18T06:21:29.149Z,986.26
2017-08-18T06:22:26.466Z,986.29
2017-08-18T06:23:23.737Z,986.36
2017-08-18T06:24:21.013Z,986.20
2017-08-18T06:25:18.286Z,986.27
2017-08-18T06:26:15.585Z,986.25
2017-08-18T06:27:12.934Z,986.20
2017-08-18T06:28:10.340Z,986.13
2017-08-18T06:29:07.682Z,986.14
2017-08-18T06:30:05.069Z,986.15
2017-08-18T06:31:02.349Z,986.13
2017-08-18T06:31:59.653Z,986.09
2017-08-18T06:32:57.121Z,986.12
2017-08-18T06:33:54.711Z,986.16
2017-08-18T06:34:52.294Z,986.18
2017-08-18T06:35:49.602Z,986.10
2017-08-18T06:36:46.976Z,986.14
2017-08-18T06:37:44.415Z,986.21
2017-08-18T06:38:41.827Z,986.24
2017-08-18T06:39:39.207Z,986.30
2017-08-18T06:40:36.537Z,986.29
2017-08-18T06:41:33.821Z,986.28
2017-08-18T06:42:31.175Z,986.33
2017-08-18T06:43:28.558Z,986.32
2017-08-18T06:44:25.945Z,986.30
2017-08-18T06:45:23.241Z,986.28
2017-08-18T06:46:20.521Z,986.30
2017-08-18T06:47:17.810Z,986.26
2017-08-18T06:48:15.340Z,986.28
2017-08-18T06:49:12.689Z,986.33
2017-08-18T06:50:10.109Z,986.24
2017-08-18T06:51:07.530Z,986.22
2017-08-18T06:52:04.801Z,986.17
2017-08-18T06:53:02.097Z,986.18
2017-08-18T06:53:59.369Z,986.18
2017-08-18T06:54:56.651Z,986.19
2017-08-18T06:55:53.963Z,986.13
2017-08-18T06:56:51.335Z,986.10
2017-08-18T06:57:48.704Z,986.14
2017-08-18T06:58:45.994Z,986.05
2017-08-18T06:59:43.281Z,986.06
2017-08-18T07:00:40.556Z,986.09
2017-08-18T07:01:37.842Z,986.14
2017-08-18T07:02:35.285Z,986.16
2017-08-18T07:03:32.564Z,986.20
2017-08-18T07:04:29.868Z,986.15
2017-08-18T07:05:27.130Z,986.20
2017-08-18T07:06:24.433Z,986.21
2017-08-18T07:07:21.726Z,986.17
2017-08-18T07:08:19.041Z,986.29
2017-08-18T07:09:16.337Z,986.10
2017-08-18T07:10:13.642Z,986.13
2017-08-18T07:11:10.930Z,986.23
2017-08-18T07:12:08.223Z,986.18
2017-08-18T07:13:05.522Z,986.22
2017-08-18T07:14:02.918Z,986.15
2017-08-18T07:15:00.197Z,986.21
2017-08-18T07:15:57.486Z,986.24
2017-08-18T07:16:54.781Z,986.22
2017-08-18T07:17:52.087Z,986.24
2017-08-18T07:18:49.378Z,986.26
2017-08-18T07:19:46.686Z,986.26
2017-08-18T07:20:43.953Z,986.26
2017-08-18T07:21:41.227Z,986.32
2017-08-18T07:22:38.498Z,986.26
2017-08-18T07:23:35.813Z,986.34
2017-08-18T07:24:33.089Z,986.35
2017-08-18T07:25:30.366Z,986.26
2017-08-18T07:26:27.642Z,986.31
2017-08-18T07:27:24.923Z,986.28
2017-08-18T07:28:22.205Z,986.35
2017-08-18T07:29:19.477Z,986.34
2017-08-18T07:30:16.750Z,986.37
2017-08-18T07:31:14.046Z,986.25
2017-08-18T07:32:11.517Z,986.31
2017-08-18T07:33:09.180Z,986.43
2017-08-18T07:34:06.494Z,986.44
2017-08-18T07:35:03.905Z,986.35
2017-08-18T07:36:01.194Z,986.32
2017-08-18T07:36:58.645Z,986.40
2017-08-18T07:37:56.909Z,986.34
2017-08-18T07:38:54.354Z,986.32
2017-08-18T07:39:51.691Z,986.30
2017-08-18T07:40:49.115Z,986.33
2017-08-18T07:41:47.029Z,986.34
2017-08-18T07:42:44.595Z,986.32
2017-08-18T07:43:41.941Z,986.46
2017-08-18T07:44:39.393Z,986.40
2017-08-18T07:45:36.713Z,986.40
2017-08-18T07:46:34.164Z,986.39
2017-08-18T07:47:31.650Z,986.39
2017-08-18T07:48:29.109Z,986.40
2017-08-18T07:49:26.392Z,986.39
2017-08-18T07:50:23.687Z,986.41
2017-08-18T07:51:21.087Z,986.39
2017-08-18T07:52:18.673Z,986.34
2017-08-18T07:53:16.326Z,986.30
2017-08-18T07:54:13.741Z,986.37
2017-08-18T07:55:11.038Z,986.33
2017-08-18T07:56:08.510Z,986.37
2017-08-18T07:57:06.013Z,986.41
2017-08-18T07:58:03.529Z,986.34
2017-08-18T07:59:00.822Z,986.41
2017-08-18T07:59:58.137Z,986.46
2017-08-18T08:00:55.393Z,986.41
2017-08-18T08:01:52.702Z,986.40
2017-08-18T08:02:49.965Z,986.39
2017-08-18T08:03:47.245Z,986.39
2017-08-18T08:04:44.525Z,986.47
2017-08-18T08:05:41.822Z,986.47
2017-08-18T08:06:39.101Z,986.49
2017-08-18T08:07:36.381Z,986.44
2017-08-18T08:08:33.666Z,986.42
2017-08-18T08:09:31.079Z,986.41
2017-08-18T08:10:28.387Z,986.36
2017-08-18T08:11:25.676Z,986.35
2017-08-18T08:12:22.969Z,986.33
2017-08-18T08:13:20.269Z,986.35
2017-08-18T08:14:17.540Z,986.34
2017-08-18T08:15:15.010Z,986.31
2017-08-18T08:16:12.294Z,986.31
2017-08-18T08:17:09.586Z,986.35
2017-08-18T08:18:06.841Z,986.38
2017-08-18T08:19:04.129Z,986.29
2017-08-18T08:20:02.814Z,986.36
2017-08-18T08:21:00.247Z,986.30
2017-08-18T08:21:57.518Z,986.29
2017-08-18T08:22:54.815Z,986.24
2017-08-18T08:23:52.113Z,986.25
2017-08-18T08:24:49.413Z,986.23
2017-08-18T08:25:46.689Z,986.28
2017-08-18T08:26:43.990Z,986.17
2017-08-18T08:27:41.264Z,986.19
2017-08-18T08:28:38.546Z,986.24
2017-08-18T08:29:36.045Z,986.24
2017-08-18T08:30:33.543Z,986.22
2017-08-18T08:31:30.950Z,986.21
2017-08-18T08:32:28.238Z,986.22
2017-08-18T08:33:25.553Z,986.22
2017-08-18T08:34:22.869Z,986.20
2017-08-18T08:35:21.169Z,986.21
2017-08-18T08:36:19.634Z,986.32
2017-08-18T08:37:16.909Z,986.29
2017-08-18T08:38:14.181Z,986.20
2017-08-18T08:39:11.449Z,986.21
2017-08-18T08:40:08.742Z,986.20
2017-08-18T08:41:06.006Z,986.20
2017-08-18T08:42:03.351Z,986.26
2017-08-18T08:43:00.633Z,986.29
2017-08-18T08:43:57.917Z,986.24
2017-08-18T08:44:55.193Z,986.25
2017-08-18T08:45:52.494Z,986.27
2017-08-18T08:46:49.814Z,986.19
2017-08-18T08:47:47.153Z,986.30
2017-08-18T08:48:45.355Z,986.35
2017-08-18T08:49:42.664Z,986.25
2017-08-18T08:50:39.933Z,986.20
2017-08-18T08:51:37.255Z,986.25
2017-08-18T08:52:34.541Z,986.25
2017-08-18T08:53:31.857Z,986.25
2017-08-18T08:54:29.138Z,986.28
2017-08-18T08:55:26.448Z,986.25
2017-08-18T08:56:23.717Z,986.22
2017-08-18T08:57:21.013Z,986.26
2017-08-18T08:58:18.293Z,986.21
2017-08-18T08:59:16.721Z,986.28
2017-08-18T09:00:15.006Z,986.25
2017-08-18T09:01:12.342Z,986.18
2017-08-18T09:02:09.682Z,986.16
2017-08-18T09:03:06.981Z,986.18
2017-08-18T09:04:04.604Z,986.21
2017-08-18T09:05:06.982Z,986.16
2017-08-18T09:08:33.393Z,986.15
2017-08-18T09:09:30.814Z,986.16
2017-08-18T09:10:37.422Z,986.12
2017-08-18T09:11:46.736Z,986.13
2017-08-18T09:12:44.110Z,986.13
2017-08-18T09:13:42.049Z,986.08
2017-08-18T09:14:39.370Z,986.12
2017-08-18T09:15:36.686Z,986.12
2017-08-18T09:16:35.041Z,986.05
2017-08-18T09:18:34.318Z,986.01
2017-08-18T09:19:31.614Z,986.02
2017-08-18T09:20:28.915Z,985.98
2017-08-18T09:21:26.204Z,985.99
2017-08-18T09:22:23.525Z,986.02
2017-08-18T09:23:20.809Z,985.98
2017-08-18T09:24:18.105Z,985.96
2017-08-18T09:25:15.406Z,986.01
2017-08-18T09:26:12.690Z,985.98
2017-08-18T09:27:09.994Z,985.97
2017-08-18T09:28:07.306Z,986.01
2017-08-18T09:29:04.587Z,985.93
2017-08-18T09:30:02.341Z,985.97
2017-08-18T09:30:59.841Z,986.04
2017-08-18T09:31:57.139Z,986.03
2017-08-18T09:32:54.421Z,986.01
2017-08-18T09:33:51.726Z,986.02
2017-08-18T09:34:48.990Z,986.01
2017-08-18T09:35:46.315Z,986.02
2017-08-18T09:36:43.782Z,985.97
2017-08-18T09:37:41.582Z,985.89
2017-08-18T09:38:38.886Z,985.92
2017-08-18T09:39:36.217Z,985.92
2017-08-18T09:40:33.811Z,985.95
2017-08-18T09:41:31.598Z,985.93
2017-08-18T09:42:29.044Z,985.91
2017-08-18T09:43:26.365Z,985.88
2017-08-18T09:44:23.639Z,985.90
2017-08-18T09:45:20.926Z,985.83
2017-08-18T09:46:18.221Z,985.78
2017-08-18T09:47:15.512Z,985.75
2017-08-18T09:48:12.846Z,985.69
2017-08-18T09:49:10.145Z,985.81
2017-08-18T09:50:07.482Z,985.83
2017-08-18T09:51:04.781Z,985.77
2017-08-18T09:52:02.069Z,985.80
2017-08-18T09:52:59.395Z,985.73
2017-08-18T09:54:59.455Z,985.64
2017-08-18T09:55:56.769Z,985.65
2017-08-18T09:56:54.085Z,985.63
2017-08-18T09:57:51.363Z,985.66
2017-08-18T09:58:48.661Z,985.58
2017-08-18T09:59:45.950Z,985.55
2017-08-18T10:00:43.250Z,985.62
2017-08-18T10:01:40.534Z,985.59
2017-08-18T10:02:37.821Z,985.47
2017-08-18T10:03:35.105Z,985.54
2017-08-18T10:04:32.489Z,985.51
2017-08-18T10:05:29.801Z,985.48
2017-08-18T10:06:27.085Z,985.50
2017-08-18T10:07:24.377Z,985.45
2017-08-18T10:08:21.919Z,985.43
2017-08-18T10:09:19.349Z,985.39
2017-08-18T10:10:16.642Z,985.40
2017-08-18T10:11:13.905Z,985.40
2017-08-18T10:12:11.221Z,985.39
2017-08-18T10:13:08.525Z,985.38
2017-08-18T10:14:06.506Z,985.39
2017-08-18T10:15:03.799Z,985.46
2017-08-18T10:16:01.116Z,985.40
2017-08-18T10:16:58.406Z,985.42
2017-08-18T10:17:55.693Z,985.37
2017-08-18T10:18:52.980Z,985.46
2017-08-18T10:19:50.398Z,985.42
2017-08-18T10:20:47.735Z,985.41
2017-08-18T10:21:45.071Z,985.43
2017-08-18T10:22:43.145Z,985.42
2017-08-18T10:23:40.435Z,985.33
2017-08-18T10:24:37.753Z,985.36
2017-08-18T10:25:35.170Z,985.37
2017-08-18T10:26:32.462Z,985.42
2017-08-18T10:27:29.753Z,985.44
2017-08-18T10:28:27.025Z,985.33
2017-08-18T10:29:24.314Z,985.40
2017-08-18T10:30:21.609Z,985.41
2017-08-18T10:31:18.973Z,985.39
2017-08-18T10:32:16.262Z,985.48
2017-08-18T10:33:13.594Z,985.32
2017-08-18T10:34:11.013Z,985.35
2017-08-18T10:35:08.319Z,985.42
2017-08-18T10:36:05.626Z,985.39
2017-08-18T10:37:02.961Z,985.45
2017-08-18T10:38:00.250Z,985.46
2017-08-18T10:38:58.343Z,985.47
2017-08-18T10:39:57.617Z,985.43
2017-08-18T10:40:55.614Z,985.45
2017-08-18T10:41:52.917Z,985.46
2017-08-18T10:42:50.203Z,985.45
2017-08-18T10:43:47.494Z,985.43
2017-08-18T10:44:44.779Z,985.39
2017-08-18T10:45:42.087Z,985.46
2017-08-18T10:46:39.374Z,985.41
2017-08-18T10:47:36.685Z,985.46
2017-08-18T10:48:33.960Z,985.49
2017-08-18T10:49:31.250Z,985.44
2017-08-18T10:50:28.509Z,985.44
2017-08-18T10:51:25.800Z,985.44
2017-08-18T10:52:23.084Z,985.41
2017-08-18T10:53:20.361Z,985.39
2017-08-18T10:54:17.626Z,985.39
2017-08-18T10:55:14.925Z,985.38
2017-08-18T10:56:12.184Z,985.41
2017-08-18T10:57:09.502Z,985.53
2017-08-18T10:58:06.778Z,985.44
2017-08-18T10:59:04.066Z,985.47
2017-08-18T11:00:01.350Z,985.47
2017-08-18T11:00:58.678Z,985.50
2017-08-18T11:01:56.007Z,985.57
2017-08-18T11:02:53.390Z,985.49
2017-08-18T11:03:50.786Z,985.50
2017-08-18T11:04:48.114Z,985.46
2017-08-18T11:05:45.417Z,985.50
2017-08-18T11:06:42.742Z,985.56
2017-08-18T11:07:40.053Z,985.53
2017-08-18T11:08:37.353Z,985.54
2017-08-18T11:09:34.635Z,985.52
2017-08-18T11:10:31.931Z,985.52
2017-08-18T11:11:29.242Z,985.45
2017-08-18T11:12:26.521Z,985.53
2017-08-18T11:13:23.806Z,985.50
2017-08-18T11:14:21.123Z,985.47
2017-08-18T11:15:18.393Z,985.51
2017-08-18T11:16:15.710Z,985.49
2017-08-18T11:17:13.011Z,985.53
2017-08-18T11:18:10.318Z,985.54
2017-08-18T11:19:07.621Z,985.48
2017-08-18T11:20:04.902Z,985.47
2017-08-18T11:21:02.170Z,985.49
2017-08-18T11:21:59.493Z,985.43
2017-08-18T11:22:56.750Z,985.52
2017-08-18T11:23:54.038Z,985.42
2017-08-18T11:24:51.318Z,985.46
2017-08-18T11:25:48.628Z,985.43
2017-08-18T11:26:45.918Z,985.44
2017-08-18T11:27:43.194Z,985.42
2017-08-18T11:28:40.482Z,985.42
2017-08-18T11:29:37.778Z,985.35
2017-08-18T11:30:35.047Z,985.41
2017-08-18T11:31:32.342Z,985.40
2017-08-18T11:32:29.606Z,985.44
2017-08-18T11:33:26.885Z,985.50
2017-08-18T11:34:24.213Z,985.47
2017-08-18T11:35:21.503Z,985.52
2017-08-18T11:36:18.794Z,985.42
2017-08-18T11:37:16.114Z,985.54
2017-08-18T11:38:13.369Z,985.46
2017-08-18T11:39:10.649Z,985.52
2017-08-18T11:40:07.906Z,985.53
2017-08-18T11:41:05.178Z,985.48
2017-08-18T11:42:02.453Z,985.45
2017-08-18T11:42:59.729Z,985.38
2017-08-18T11:43:57.010Z,985.40
2017-08-18T11:44:54.462Z,985.38
2017-08-18T11:45:51.734Z,985.42
2017-08-18T11:46:49.071Z,985.44
2017-08-18T11:47:46.352Z,985.54
2017-08-18T11:48:43.654Z,985.58
2017-08-18T11:49:40.917Z,985.60
2017-08-18T11:50:38.205Z,985.65
2017-08-18T11:51:35.509Z,985.64
2017-08-18T11:52:32.822Z,985.59
2017-08-18T11:53:30.118Z,985.56
2017-08-18T11:54:27.442Z,985.57
2017-08-18T11:55:24.746Z,985.63
2017-08-18T11:56:22.058Z,985.61
2017-08-18T11:57:19.443Z,985.53
2017-08-18T11:58:16.741Z,985.52
2017-08-18T11:59:14.047Z,985.52
2017-08-18T12:00:11.389Z,985.60